Time;durP1;ratioP1;P1;durP2;ratioP2;P2;SDS_P1;SDS_P2;PMS_P1;PMS_P2;Temp;Humidity;BMP_temperature;BMP_pressure;BME280_temperature;BME280_humidity;BME280_pressure;Samples;Min_cycle;Max_cycle;Signal;HPM_P1;HPM_P2
2023/07/19 00:01:37;;;;;;;15.98;4.07;;;;;;;16.48;100.00;101276.94;5064246;28;20059;-69
2023/07/19 00:04:03;;;;;;;15.20;4.50;;;;;;;16.59;100.00;101275.00;5062577;28;20063;-69
2023/07/19 00:06:29;;;;;;;17.30;4.65;;;;;;;16.64;100.00;101269.59;5065191;28;20054;-70
2023/07/19 00:08:55;;;;;;;16.45;4.50;;;;;;;16.46;100.00;101258.28;5057768;28;20112;-70
2023/07/19 00:11:20;;;;;;;18.08;4.70;;;;;;;16.26;100.00;101263.00;5064504;28;20127;-70
2023/07/19 00:13:46;;;;;;;14.45;4.72;;;;;;;16.24;100.00;101264.78;5062739;28;20108;-69
2023/07/19 00:16:11;;;;;;;15.27;4.80;;;;;;;16.23;100.00;101260.38;5063451;28;20586;-69
2023/07/19 00:18:36;;;;;;;14.68;4.50;;;;;;;16.16;100.00;101273.78;5064102;28;20501;-70
2023/07/19 00:21:02;;;;;;;17.55;4.75;;;;;;;16.26;100.00;101269.22;5061806;28;20054;-69
2023/07/19 00:23:27;;;;;;;15.13;4.63;;;;;;;16.36;100.00;101256.66;5065145;28;20051;-70
2023/07/19 00:25:53;;;;;;;17.08;4.70;;;;;;;16.34;100.00;101254.00;5061591;28;20025;-70
2023/07/19 00:28:18;;;;;;;15.88;4.40;;;;;;;16.07;100.00;101257.88;5063335;28;20061;-68
2023/07/19 00:30:43;;;;;;;15.88;4.45;;;;;;;15.95;100.00;101247.38;5062829;28;20032;-70
2023/07/19 00:33:09;;;;;;;15.52;4.68;;;;;;;16.01;100.00;101242.84;5062477;28;20029;-70
2023/07/19 00:35:40;;;;;;;14.13;4.28;;;;;;;16.00;100.00;101248.19;5064341;28;20028;-69
2023/07/19 00:38:06;;;;;;;15.98;4.60;;;;;;;15.90;100.00;101243.88;5062232;28;20040;-69
2023/07/19 00:40:32;;;;;;;16.85;4.57;;;;;;;15.99;100.00;101241.97;5063132;28;20037;-70
2023/07/19 00:42:58;;;;;;;17.33;4.90;;;;;;;16.04;100.00;101237.47;5061596;28;20372;-70
2023/07/19 00:45:25;;;;;;;16.27;5.07;;;;;;;16.00;100.00;101232.19;5064242;28;20024;-69
2023/07/19 00:47:51;;;;;;;16.00;4.78;;;;;;;15.93;100.00;101223.41;5061688;28;20134;-70
2023/07/19 00:50:17;;;;;;;15.20;4.80;;;;;;;15.98;100.00;101232.22;5063499;28;20040;-62
2023/07/19 00:52:42;;;;;;;16.27;4.70;;;;;;;15.82;100.00;101220.84;5062616;28;20051;-64
2023/07/19 00:55:09;;;;;;;14.35;4.28;;;;;;;15.69;100.00;101224.50;5062246;28;20025;-63
2023/07/19 00:57:34;;;;;;;16.90;4.78;;;;;;;15.59;100.00;101222.84;5064177;28;20422;-63
2023/07/19 01:00:00;;;;;;;15.38;4.95;;;;;;;15.41;100.00;101223.94;5061043;28;20033;-62
2023/07/19 01:02:26;;;;;;;14.85;4.85;;;;;;;15.41;100.00;101231.91;5056981;28;20060;-65
2023/07/19 01:04:52;;;;;;;15.45;4.82;;;;;;;15.39;100.00;101225.72;5064431;28;20402;-63
2023/07/19 01:07:17;;;;;;;14.05;4.63;;;;;;;15.48;100.00;101223.84;5061971;28;20107;-62
2023/07/19 01:09:43;;;;;;;16.98;5.00;;;;;;;15.56;100.00;101229.09;5062509;28;20111;-65
2023/07/19 01:12:08;;;;;;;15.98;5.28;;;;;;;15.65;100.00;101221.03;5063332;28;20032;-65
2023/07/19 01:14:34;;;;;;;16.60;5.22;;;;;;;15.63;100.00;101219.25;5060015;28;20116;-64
2023/07/19 01:17:00;;;;;;;16.73;5.03;;;;;;;15.61;100.00;101210.38;5064285;28;20048;-64
2023/07/19 01:19:25;;;;;;;16.58;5.18;;;;;;;15.51;100.00;101221.16;5057031;28;20480;-65
2023/07/19 01:21:55;;;;;;;16.05;5.20;;;;;;;15.46;100.00;101224.75;5063550;28;20047;-64
2023/07/19 01:24:20;;;;;;;15.02;4.80;;;;;;;15.46;100.00;101216.75;5061698;28;20380;-64
2023/07/19 01:26:47;;;;;;;17.23;5.40;;;;;;;15.41;100.00;101215.94;5063093;28;20025;-65
2023/07/19 01:29:12;;;;;;;17.13;5.40;;;;;;;15.53;100.00;101213.13;5062595;28;20103;-65
2023/07/19 01:31:38;;;;;;;17.70;5.85;;;;;;;15.49;100.00;101204.31;5061616;28;20533;-65
2023/07/19 01:34:03;;;;;;;17.25;5.80;;;;;;;15.62;100.00;101198.84;5063757;28;20422;-65
2023/07/19 01:36:29;;;;;;;18.08;5.90;;;;;;;15.59;100.00;101199.75;5060880;28;20028;-64
2023/07/19 01:38:54;;;;;;;17.38;5.95;;;;;;;15.58;100.00;101206.00;5065410;28;20035;-65
2023/07/19 01:41:20;;;;;;;17.20;5.95;;;;;;;15.55;100.00;101195.34;5065310;28;20373;-65
2023/07/19 01:43:45;;;;;;;17.40;6.00;;;;;;;15.62;100.00;101189.03;5066683;28;20040;-62
2023/07/19 01:46:11;;;;;;;16.27;5.88;;;;;;;15.66;100.00;101193.44;5066530;28;20043;-64
2023/07/19 01:48:36;;;;;;;17.77;6.10;;;;;;;15.66;100.00;101193.44;5065277;28;20514;-65
2023/07/19 01:51:02;;;;;;;18.52;6.00;;;;;;;15.66;100.00;101197.91;5067404;28;20522;-65
2023/07/19 01:53:27;;;;;;;16.63;5.78;;;;;;;15.53;100.00;101202.47;5064487;28;20059;-64
2023/07/19 01:55:55;;;;;;;17.40;5.90;;;;;;;15.37;100.00;101211.53;5067439;28;20115;-62
2023/07/19 01:58:20;;;;;;;17.38;6.00;;;;;;;15.46;100.00;101193.66;5065076;28;20033;-64
2023/07/19 02:00:46;;;;;;;17.77;5.68;;;;;;;15.22;100.00;101202.78;5066613;28;20036;-65
2023/07/19 02:03:11;;;;;;;17.27;5.65;;;;;;;15.29;100.00;101198.28;5066190;28;20387;-65
2023/07/19 02:05:37;;;;;;;17.95;6.13;;;;;;;15.18;100.00;101194.84;5064890;28;20040;-70
2023/07/19 02:08:03;;;;;;;18.13;5.97;;;;;;;15.25;100.00;101192.09;5067476;28;20067;-70
2023/07/19 02:10:29;;;;;;;17.02;5.65;;;;;;;15.08;100.00;101202.03;5063899;28;20468;-69
2023/07/19 02:12:54;;;;;;;16.52;5.97;;;;;;;15.05;100.00;101194.06;5067491;28;20038;-70
2023/07/19 02:15:19;;;;;;;16.50;6.00;;;;;;;15.07;100.00;101189.59;5064999;28;20025;-70
2023/07/19 02:17:45;;;;;;;18.10;5.85;;;;;;;15.08;100.00;101188.72;5065785;28;20112;-69
2023/07/19 02:20:12;;;;;;;17.67;6.00;;;;;;;15.10;100.00;101189.56;5066387;28;20379;-69
2023/07/19 02:22:39;;;;;;;16.05;5.57;;;;;;;15.14;100.00;101175.34;5064783;28;20391;-69
2023/07/19 02:25:05;;;;;;;16.67;5.88;;;;;;;15.07;100.00;101181.63;5066950;28;20036;-70
2023/07/19 02:27:30;;;;;;;17.67;5.90;;;;;;;15.03;100.00;101177.22;5063648;28;20480;-66
2023/07/19 02:29:56;;;;;;;16.80;5.88;;;;;;;15.04;100.00;101182.50;5067203;28;20035;-69
2023/07/19 02:32:21;;;;;;;17.55;5.70;;;;;;;15.02;100.00;101188.78;5064216;28;20482;-70
2023/07/19 02:34:47;;;;;;;16.92;5.90;;;;;;;15.03;100.00;101182.53;5065972;28;20503;-70
2023/07/19 02:37:12;;;;;;;17.45;5.55;;;;;;;15.08;100.00;101178.06;5065325;28;20039;-70
2023/07/19 02:39:37;;;;;;;16.67;5.63;;;;;;;14.97;100.00;101176.38;5064447;28;20379;-69
2023/07/19 02:42:04;;;;;;;18.42;6.20;;;;;;;15.01;100.00;101176.34;5066861;28;20029;-70
2023/07/19 02:44:29;;;;;;;16.85;5.57;;;;;;;15.01;100.00;101179.00;5063407;28;20029;-69
2023/07/19 02:46:54;;;;;;;18.25;5.50;;;;;;;15.05;100.00;101178.97;5066495;28;20472;-70
2023/07/19 02:49:20;;;;;;;15.85;5.80;;;;;;;14.90;100.00;101185.31;5064611;28;20031;-70
2023/07/19 02:51:45;;;;;;;17.17;5.57;;;;;;;15.04;100.00;101192.28;5064033;28;20048;-70
2023/07/19 02:54:11;;;;;;;16.95;5.65;;;;;;;15.04;100.00;101192.28;5065312;28;20123;-69
2023/07/19 02:56:36;;;;;;;18.20;5.80;;;;;;;15.07;100.00;101194.94;5064054;28;20475;-69
2023/07/19 02:59:02;;;;;;;19.45;5.80;;;;;;;15.12;100.00;101175.34;5066578;28;20365;-70
2023/07/19 03:01:27;;;;;;;18.70;5.75;;;;;;;15.15;100.00;101179.78;5063104;28;20477;-69
2023/07/19 03:03:53;;;;;;;17.67;5.90;;;;;;;15.24;100.00;101185.00;5066299;28;20111;-69
2023/07/19 03:06:18;;;;;;;18.80;6.25;;;;;;;15.30;100.00;101176.06;5064359;28;20052;-70
2023/07/19 03:08:44;;;;;;;18.35;6.10;;;;;;;15.34;100.00;101178.69;5064897;28;20025;-69
2023/07/19 03:11:09;;;;;;;17.75;5.60;;;;;;;15.40;100.00;101180.41;5065229;28;20402;-65
2023/07/19 03:13:35;;;;;;;17.80;5.70;;;;;;;15.24;100.00;101187.66;5063292;28;20032;-64
2023/07/19 03:16:00;;;;;;;17.73;5.82;;;;;;;15.31;100.00;101186.72;5066588;28;20035;-63
2023/07/19 03:18:26;;;;;;;18.40;6.10;;;;;;;15.32;100.00;101195.59;5062828;28;20025;-62
2023/07/19 03:20:58;;;;;;;19.38;5.80;;;;;;;15.31;100.00;101193.81;5065579;28;20115;-64
2023/07/19 03:23:24;;;;;;;19.90;6.05;;;;;;;15.44;100.00;101186.59;5062130;28;20036;-65
2023/07/19 03:25:50;;;;;;;17.70;6.00;;;;;;;15.42;100.00;101193.72;5065098;28;20024;-64
2023/07/19 03:28:15;;;;;;;19.02;6.10;;;;;;;15.37;100.00;101191.09;5064075;28;20116;-64
2023/07/19 03:30:40;;;;;;;20.17;6.15;;;;;;;15.48;100.00;101193.66;5063928;28;20082;-65
2023/07/19 03:33:06;;;;;;;18.15;6.38;;;;;;;15.39;100.00;101199.97;5065194;28;20029;-65
2023/07/19 03:35:31;;;;;;;20.40;6.40;;;;;;;15.39;100.00;101209.72;5062700;28;20033;-63
2023/07/19 03:37:56;;;;;;;19.33;6.35;;;;;;;15.38;100.00;101202.63;5065964;28;20033;-65
2023/07/19 03:40:22;;;;;;;17.90;6.00;;;;;;;15.52;100.00;101200.72;5063201;28;20041;-65
2023/07/19 03:42:47;;;;;;;19.30;6.50;;;;;;;15.51;100.00;101194.50;5064423;28;20357;-62
2023/07/19 03:45:12;;;;;;;18.77;6.22;;;;;;;15.57;100.00;101201.56;5064335;28;20030;-63
2023/07/19 03:47:39;;;;;;;19.02;6.40;;;;;;;15.48;100.00;101199.88;5062948;28;20021;-63
2023/07/19 03:50:05;;;;;;;18.77;6.57;;;;;;;15.55;100.00;101198.00;5065137;28;20029;-64
2023/07/19 03:52:31;;;;;;;18.00;6.55;;;;;;;15.47;100.00;101205.22;5062065;28;20107;-65
2023/07/19 03:54:56;;;;;;;21.05;7.30;;;;;;;15.55;100.00;101198.00;5065328;28;20024;-65
2023/07/19 03:57:22;;;;;;;20.60;6.72;;;;;;;15.61;100.00;101197.06;5062617;28;20541;-65
2023/07/19 03:59:47;;;;;;;18.05;6.32;;;;;;;15.60;100.00;101205.97;5064619;28;20021;-65
2023/07/19 04:02:13;;;;;;;22.48;6.88;;;;;;;15.56;100.00;101209.56;5063999;28;20028;-65
2023/07/19 04:04:38;;;;;;;19.48;6.35;;;;;;;15.58;100.00;101203.34;5062818;28;20116;-64
2023/07/19 04:07:04;;;;;;;19.25;7.10;;;;;;;15.56;100.00;101201.56;5065085;28;20075;-65
2023/07/19 04:09:29;;;;;;;20.48;7.30;;;;;;;15.52;100.00;101195.38;5061952;28;20336;-64
2023/07/19 04:11:55;;;;;;;19.45;7.30;;;;;;;15.53;100.00;101194.50;5065217;28;20514;-67
2023/07/19 04:14:20;;;;;;;19.10;7.00;;;;;;;15.60;100.00;101196.19;5062634;28;20074;-69
2023/07/19 04:16:46;;;;;;;25.85;7.60;;;;;;;15.55;100.00;101198.00;5063450;28;20028;-68
2023/07/19 04:19:11;;;;;;;20.02;7.88;;;;;;;15.61;100.00;101194.41;5064050;28;20063;-69
2023/07/19 04:21:36;;;;;;;20.45;7.80;;;;;;;15.73;100.00;101190.69;5062134;28;20087;-68
2023/07/19 04:24:02;;;;;;;19.52;7.70;;;;;;;15.62;100.00;101197.03;5064916;28;20021;-68
2023/07/19 04:26:27;;;;;;;19.25;8.00;;;;;;;15.67;100.00;101194.34;5057816;28;20025;-68
2023/07/19 04:28:52;;;;;;;20.15;7.95;;;;;;;15.75;100.00;101205.78;5064167;28;20059;-68
2023/07/19 04:31:18;;;;;;;20.17;8.10;;;;;;;15.71;100.00;101192.53;5062550;28;20403;-68
2023/07/19 04:33:43;;;;;;;19.40;8.40;;;;;;;15.78;100.00;101194.22;5063062;28;20074;-68
2023/07/19 04:36:15;;;;;;;19.77;8.50;;;;;;;15.82;100.00;101199.53;5063766;28;20103;-69
2023/07/19 04:38:41;;;;;;;19.02;8.05;;;;;;;15.77;100.00;101200.44;5062483;28;20094;-69
2023/07/19 04:41:08;;;;;;;19.83;7.97;;;;;;;15.78;100.00;101199.53;5064183;28;20040;-69
2023/07/19 04:43:33;;;;;;;20.02;8.00;;;;;;;15.84;100.00;101200.41;5061338;28;20029;-68
2023/07/19 04:45:59;;;;;;;19.33;8.60;;;;;;;15.91;100.00;101201.19;5063258;28;20029;-68
2023/07/19 04:48:24;;;;;;;21.25;8.75;;;;;;;15.91;100.00;101201.19;5061676;28;20476;-68
2023/07/19 04:50:54;;;;;;;22.02;8.80;;;;;;;15.92;100.00;101205.63;5063392;28;20412;-67
2023/07/19 04:53:21;;;;;;;21.42;8.85;;;;;;;15.88;100.00;101211.91;5062025;28;20024;-68
2023/07/19 04:55:48;;;;;;;21.80;9.02;;;;;;;15.83;100.00;101211.97;5063229;28;20033;-68
2023/07/19 04:58:14;;;;;;;23.35;9.05;;;;;;;15.87;100.00;101212.78;5062927;28;20068;-63
2023/07/19 05:00:39;;;;;;;22.00;9.10;;;;;;;15.93;100.00;101217.16;5061862;28;20112;-67
2023/07/19 05:03:05;;;;;;;21.38;8.90;;;;;;;16.00;100.00;101219.75;5064305;28;20112;-66
2023/07/19 05:05:30;;;;;;;20.92;8.90;;;;;;;16.01;100.00;101218.84;5060935;28;20037;-68
2023/07/19 05:07:55;;;;;;;22.52;9.10;;;;;;;16.01;100.00;101212.63;5064383;28;20036;-67
2023/07/19 05:10:21;;;;;;;21.58;9.13;;;;;;;16.01;100.00;101209.97;5061882;28;20037;-69
2023/07/19 05:12:47;;;;;;;21.35;8.65;;;;;;;16.01;100.00;101217.97;5062528;28;20061;-67
2023/07/19 05:15:12;;;;;;;20.92;8.90;;;;;;;16.02;100.00;101219.75;5062722;28;20032;-67
2023/07/19 05:17:38;;;;;;;21.17;9.20;;;;;;;16.06;100.00;101212.56;5061440;28;20025;-68
2023/07/19 05:20:05;;;;;;;20.48;9.45;;;;;;;16.11;100.00;101216.06;5064393;28;20060;-69
2023/07/19 05:22:31;;;;;;;22.35;9.63;;;;;;;16.15;100.00;101213.34;5060939;28;20037;-65
2023/07/19 05:24:57;;;;;;;20.92;9.70;;;;;;;16.19;100.00;101211.50;5063939;28;20028;-68
2023/07/19 05:27:23;;;;;;;21.35;9.43;;;;;;;16.31;100.00;101218.47;5061498;28;20029;-69
2023/07/19 05:29:48;;;;;;;22.70;10.00;;;;;;;16.40;100.00;101218.34;5062951;28;20100;-61
2023/07/19 05:32:13;;;;;;;21.95;9.23;;;;;;;16.44;100.00;101208.50;5059591;28;20021;-60
2023/07/19 05:34:39;;;;;;;21.90;9.73;;;;;;;16.58;100.00;101217.19;5060954;28;20536;-61
2023/07/19 05:37:06;;;;;;;23.08;10.38;;;;;;;16.67;100.00;101210.84;5063933;28;20527;-65
2023/07/19 05:39:31;;;;;;;22.30;10.60;;;;;;;16.71;100.00;101210.75;5059127;28;20037;-60
2023/07/19 05:41:57;;;;;;;21.38;10.18;;;;;;;16.82;100.00;101210.63;5063528;28;20081;-62
2023/07/19 05:44:22;;;;;;;21.80;10.45;;;;;;;17.00;100.00;101203.25;5064005;28;20036;-67
2023/07/19 05:46:48;;;;;;;21.35;9.50;;;;;;;17.12;100.00;101210.16;5062009;28;20072;-62
2023/07/19 05:49:13;;;;;;;22.98;9.85;;;;;;;17.13;100.00;101195.91;5061384;28;20032;-67
2023/07/19 05:51:39;;;;;;;22.63;9.88;;;;;;;17.22;100.00;101203.75;5061852;28;20057;-71
2023/07/19 05:54:04;;;;;;;22.02;10.20;;;;;;;17.39;100.00;101207.00;5061800;28;20535;-72
2023/07/19 05:56:30;;;;;;;20.13;9.80;;;;;;;17.46;100.00;101213.13;5061667;28;20029;-68
2023/07/19 05:58:55;;;;;;;20.90;9.95;;;;;;;17.47;100.00;101205.97;5062848;28;20110;-69
2023/07/19 06:01:21;;;;;;;21.67;9.70;;;;;;;17.59;100.00;101213.75;5060650;28;20108;-72
2023/07/19 06:03:47;;;;;;;21.17;9.68;;;;;;;17.64;100.00;101213.69;5063821;28;20032;-72
2023/07/19 06:06:12;;;;;;;21.55;8.82;;;;;;;17.69;100.00;101212.69;5056162;28;20025;-71
2023/07/19 06:08:38;;;;;;;22.58;9.27;;;;;;;17.69;100.00;101218.03;5063661;28;20021;-69
2023/07/19 06:11:03;;;;;;;20.80;9.13;;;;;;;17.77;100.00;101213.41;5060247;28;20090;-69
2023/07/19 06:13:29;;;;;;;21.90;8.95;;;;;;;17.88;100.00;101215.00;5063055;28;20361;-67
2023/07/19 06:15:56;;;;;;;22.30;9.27;;;;;;;18.02;100.00;101212.06;5061094;28;20047;-69
2023/07/19 06:18:22;;;;;;;21.83;8.85;;;;;;;18.17;100.00;101210.88;5062340;28;20029;-69
2023/07/19 06:20:47;;;;;;;21.77;8.80;;;;;;;18.38;100.00;101209.53;5061248;28;20577;-69
2023/07/19 06:23:13;;;;;;;22.88;8.52;;;;;;;18.47;100.00;101204.81;5061434;28;20029;-73
2023/07/19 06:25:38;;;;;;;20.35;7.97;;;;;;;18.69;100.00;101204.34;5062303;28;20447;-68
2023/07/19 06:28:04;;;;;;;20.70;7.75;;;;;;;18.64;100.00;101204.44;5066421;28;20025;-70
2023/07/19 06:30:31;;;;;;;20.65;7.53;;;;;;;18.62;100.00;101200.03;5063472;28;20029;-75
2023/07/19 06:32:56;;;;;;;19.40;7.50;;;;;;;18.52;100.00;101206.53;5066324;28;20040;-71
2023/07/19 06:35:22;;;;;;;20.15;7.47;;;;;;;18.43;100.00;101203.13;5058004;28;20064;-62
2023/07/19 06:37:47;;;;;;;20.08;7.10;;;;;;;18.32;100.00;101197.16;5058644;28;20041;-62
2023/07/19 06:40:13;;;;;;;21.08;7.35;;;;;;;18.22;100.00;101204.50;5065020;28;20028;-64
2023/07/19 06:42:38;;;;;;;20.08;7.40;;;;;;;18.24;100.00;101207.16;5065652;28;20075;-62
2023/07/19 06:45:04;;;;;;;20.23;7.30;;;;;;;18.24;100.00;101209.81;5064099;28;20033;-61
2023/07/19 06:47:30;;;;;;;20.73;8.07;;;;;;;18.16;100.00;101215.34;5062988;28;20471;-62
2023/07/19 06:49:57;;;;;;;20.67;7.72;;;;;;;18.14;100.00;101202.91;5064953;28;20047;-61
2023/07/19 06:52:23;;;;;;;19.95;7.72;;;;;;;18.19;100.00;101214.38;5065240;28;20071;-64
2023/07/19 06:54:48;;;;;;;20.00;7.80;;;;;;;18.32;100.00;101205.19;5064505;28;20029;-62
2023/07/19 06:57:13;;;;;;;20.63;7.70;;;;;;;18.47;100.00;101217.34;5061039;28;20032;-60
2023/07/19 06:59:39;;;;;;;22.05;8.27;;;;;;;18.58;100.00;101214.41;5063082;28;20033;-63
2023/07/19 07:02:05;;;;;;;19.60;7.18;;;;;;;18.64;100.00;101212.47;5058242;28;20032;-65
2023/07/19 07:04:31;;;;;;;20.13;7.53;;;;;;;18.88;100.00;101209.28;5059298;28;20352;-66
2023/07/19 07:06:56;;;;;;;19.25;7.25;;;;;;;19.17;100.00;101217.47;5058110;28;20059;-64
2023/07/19 07:09:21;;;;;;;20.67;7.30;;;;;;;19.43;100.00;101213.22;5057539;28;20376;-64
2023/07/19 07:11:47;;;;;;;20.45;7.68;;;;;;;19.75;100.00;101214.16;5065142;28;20047;-64
2023/07/19 07:14:13;;;;;;;20.35;7.35;;;;;;;19.72;100.00;101213.34;5063099;28;20033;-65
2023/07/19 07:16:39;;;;;;;19.35;6.68;;;;;;;19.67;100.00;101216.16;5066059;28;20475;-68
2023/07/19 07:19:04;;;;;;;20.33;6.90;;;;;;;19.81;100.00;101222.06;5058461;28;20075;-67
2023/07/19 07:21:30;;;;;;;20.30;7.25;;;;;;;19.86;100.00;101216.53;5058015;28;20055;-63
2023/07/19 07:23:55;;;;;;;20.40;6.70;;;;;;;19.95;100.00;101207.34;5058324;28;20120;-66
2023/07/19 07:26:21;;;;;;;20.70;6.93;;;;;;;20.07;100.00;101209.69;5061509;28;20082;-64
2023/07/19 07:28:46;;;;;;;19.55;6.60;;;;;;;19.95;100.00;101212.72;5064438;28;20158;-65
2023/07/19 07:31:11;;;;;;;20.08;5.97;;;;;;;20.09;100.00;101217.69;5064004;28;20032;-62
2023/07/19 07:33:38;;;;;;;18.77;5.40;;;;;;;20.05;100.00;101216.91;5064474;28;20036;-69
2023/07/19 07:36:03;;;;;;;17.45;4.95;;;;;;;20.06;100.00;101204.38;5063479;28;20029;-69
2023/07/19 07:38:29;;;;;;;18.60;5.05;;;;;;;20.11;100.00;101202.41;5064720;28;20042;-69
2023/07/19 07:41:01;;;;;;;17.10;5.32;;;;;;;20.25;100.00;101204.69;5062939;28;20033;-70
2023/07/19 07:43:27;;;;;;;;;;;;;;;20.45;100.00;101210.34;5065772;28;20388;-70
2023/07/19 07:45:55;;;;;;;16.77;4.47;;;;;;;20.55;100.00;101213.63;5062009;28;19924;-70
2023/07/19 07:48:23;;;;;;;19.13;5.13;;;;;;;20.49;100.00;101200.38;5055159;28;20029;-65
2023/07/19 07:50:51;;;;;;;17.80;4.50;;;;;;;20.34;100.00;101199.03;5059713;28;20051;-70
2023/07/19 07:53:20;;;;;;;15.65;4.30;;;;;;;20.41;100.00;101200.63;5058096;28;20140;-68
2023/07/19 07:55:46;;;;;;;16.40;4.05;;;;;;;20.47;100.00;101203.09;5054943;28;20116;-71
2023/07/19 07:58:12;;;;;;;14.18;3.90;;;;;;;20.60;100.00;101200.03;5059689;28;20056;-70
2023/07/19 08:00:38;;;;;;;16.67;4.28;;;;;;;20.66;100.00;101202.53;5056332;28;20039;-70
2023/07/19 08:03:03;;;;;;;15.20;4.05;;;;;;;20.80;100.00;101211.06;5055831;28;20403;-71
2023/07/19 08:05:29;;;;;;;15.88;4.30;;;;;;;20.85;100.00;101208.22;5064131;28;20060;-69
2023/07/19 08:07:54;;;;;;;15.45;4.30;;;;;;;20.64;100.00;101201.72;5062151;28;20059;-62
2023/07/19 08:10:20;;;;;;;19.10;4.80;;;;;;;20.52;100.00;101201.16;5064939;28;20052;-61
2023/07/19 08:12:45;;;;;;;17.58;4.90;;;;;;;20.67;100.00;101198.94;5061577;28;20056;-69
2023/07/19 08:15:10;;;;;;;16.75;4.68;;;;;;;20.82;100.00;101193.06;5064980;28;20028;-73
2023/07/19 08:17:37;;;;;;;16.13;4.35;;;;;;;21.04;97.97;101186.97;5061990;28;20120;-71
2023/07/19 08:20:09;;;;;;;16.42;4.32;;;;;;;21.33;98.40;101194.03;5064029;28;20484;-69
2023/07/19 08:22:35;;;;;;;17.92;4.43;;;;;;;21.42;91.01;101190.13;5061874;28;20033;-71
2023/07/19 08:25:00;;;;;;;16.38;4.40;;;;;;;21.49;91.81;101183.59;5063866;28;20024;-70
2023/07/19 08:27:26;;;;;;;15.48;3.40;;;;;;;21.51;81.20;101181.78;5062735;28;20021;-65
2023/07/19 08:29:52;;;;;;;17.08;4.32;;;;;;;21.52;83.23;101186.25;5062892;28;20040;-66
2023/07/19 08:32:18;;;;;;;16.25;4.32;;;;;;;21.49;87.05;101188.13;5063596;28;20482;-66
2023/07/19 08:34:43;;;;;;;15.55;3.90;;;;;;;21.36;87.44;101184.97;5061807;28;20033;-67
2023/07/19 08:37:09;;;;;;;16.25;4.35;;;;;;;21.33;87.60;101187.78;5064070;28;20434;-67
2023/07/19 08:39:35;;;;;;;15.48;4.13;;;;;;;21.38;85.78;101186.69;5064572;28;20039;-65
2023/07/19 08:42:02;;;;;;;16.33;4.25;;;;;;;21.33;86.68;101195.84;5061188;28;20031;-70
2023/07/19 08:44:28;;;;;;;16.60;4.00;;;;;;;21.11;83.24;101188.53;5064503;28;20115;-64
2023/07/19 08:46:54;;;;;;;17.27;4.13;;;;;;;21.25;85.42;101191.63;5061902;28;20033;-64
2023/07/19 08:49:20;;;;;;;16.92;4.15;;;;;;;21.65;80.43;101194.72;5062388;28;20032;-62
2023/07/19 08:51:46;;;;;;;16.50;4.20;;;;;;;21.97;82.13;101194.47;5061623;28;20514;-66
2023/07/19 08:54:13;;;;;;;16.60;4.50;;;;;;;22.14;83.99;101185.78;5063045;28;20025;-63
2023/07/19 08:56:40;;;;;;;18.35;4.32;;;;;;;22.01;79.04;101196.13;5062824;28;20024;-65
2023/07/19 08:59:06;;;;;;;15.98;4.40;;;;;;;21.85;81.68;101183.22;5056305;28;20474;-63
2023/07/19 09:01:32;;;;;;;15.95;4.35;;;;;;;22.15;83.72;101187.50;5064521;28;20029;-62
2023/07/19 09:03:57;;;;;;;17.90;4.70;;;;;;;22.28;76.49;101184.28;5062489;28;20032;-62
2023/07/19 09:06:30;;;;;;;18.30;4.90;;;;;;;22.16;79.05;101190.13;5061420;28;20071;-63
2023/07/19 09:08:56;;;;;;;16.83;4.68;;;;;;;22.63;78.76;101184.72;5063039;28;20012;-64
2023/07/19 09:11:22;;;;;;;17.88;4.60;;;;;;;22.79;75.89;101201.13;5062434;28;20113;-65
2023/07/19 09:13:56;;;;;;;17.75;4.70;;;;;;;22.81;76.33;101188.47;5062399;28;20028;-62
2023/07/19 09:16:29;;;;;;;16.73;4.90;;;;;;;22.74;77.29;101192.34;5063084;28;20059;-64
2023/07/19 09:19:00;;;;;;;15.57;4.55;;;;;;;22.14;81.37;101192.03;5061584;28;20039;-65
2023/07/19 09:21:36;;;;;;;14.77;4.30;;;;;;;21.87;85.46;101193.94;5063443;28;20036;-64
2023/07/19 09:24:06;;;;;;;16.77;4.90;;;;;;;21.96;85.78;101193.63;5059305;28;20028;-63
2023/07/19 09:26:49;;;;;;;19.05;5.15;;;;;;;22.15;87.29;101192.88;5060921;28;20558;-62
2023/07/19 09:29:14;;;;;;;18.15;5.07;;;;;;;22.26;87.88;101180.75;5062204;28;20027;-63
2023/07/19 09:31:50;;;;;;;18.40;5.32;;;;;;;22.50;85.50;101188.84;5062062;28;20045;-62
2023/07/19 09:34:15;;;;;;;19.48;4.88;;;;;;;22.50;82.33;101183.47;5061631;28;20577;-66
2023/07/19 09:36:41;;;;;;;18.85;5.10;;;;;;;22.86;83.27;101182.88;5063075;28;20033;-62
2023/07/19 09:39:06;;;;;;;17.27;4.47;;;;;;;23.26;76.35;101180.34;5061785;28;20033;-62
2023/07/19 09:41:32;;;;;;;15.32;4.20;;;;;;;23.29;74.44;101183.78;5062134;28;20064;-62
2023/07/19 09:43:58;;;;;;;18.00;4.10;;;;;;;23.19;77.00;101195.03;5062837;28;20028;-62
2023/07/19 09:46:25;;;;;;;14.95;3.80;;;;;;;23.25;78.37;101192.94;5060812;28;20051;-61
2023/07/19 09:48:50;;;;;;;14.45;3.80;;;;;;;23.42;74.62;101194.91;5063740;28;20025;-64
2023/07/19 09:51:17;;;;;;;15.70;4.07;;;;;;;23.73;73.81;101184.56;5063018;28;20203;-69
2023/07/19 09:53:43;;;;;;;14.90;3.80;;;;;;;23.95;71.59;101185.34;5060662;28;20111;-70
2023/07/19 09:56:10;;;;;;;15.52;3.78;;;;;;;24.06;71.16;101181.28;5056309;28;20448;-65
2023/07/19 09:58:36;;;;;;;18.25;3.95;;;;;;;24.15;69.15;101175.47;5063526;28;20021;-64
2023/07/19 10:01:01;;;;;;;14.90;3.58;;;;;;;23.78;68.88;101179.81;5065020;28;20115;-65
2023/07/19 10:03:26;;;;;;;14.68;3.40;;;;;;;23.55;73.01;101184.47;5064323;28;20036;-62
2023/07/19 10:05:58;;;;;;;12.65;3.50;;;;;;;24.25;69.57;101181.31;5062200;28;20073;-67
2023/07/19 10:08:24;;;;;;;18.92;3.90;;;;;;;24.68;65.06;101184.63;5060740;28;20033;-67
2023/07/19 10:10:57;;;;;;;14.15;3.55;;;;;;;25.53;63.17;101181.22;5066987;28;20063;-67
2023/07/19 10:13:31;;;;;;;16.88;4.00;;;;;;;25.67;61.01;101187.72;5059965;28;20120;-67
2023/07/19 10:15:57;;;;;;;14.80;3.80;;;;;;;25.21;62.17;101181.06;5056554;28;20450;-62
2023/07/19 10:18:23;;;;;;;15.48;3.58;;;;;;;25.08;62.27;101187.16;5058338;28;20078;-65
2023/07/19 10:21:02;;;;;;;13.93;3.50;;;;;;;24.80;63.50;101180.44;5058814;28;20511;-62
2023/07/19 10:23:30;;;;;;;14.68;3.70;;;;;;;24.22;63.02;101187.72;5055715;28;20479;-67
2023/07/19 10:25:56;;;;;;;14.00;3.33;;;;;;;23.90;63.10;101184.72;5059699;28;20017;-68
2023/07/19 10:28:29;;;;;;;13.80;3.20;;;;;;;24.34;63.37;101184.44;5062933;28;20023;-67
2023/07/19 10:30:56;;;;;;;12.82;3.10;;;;;;;24.80;60.63;101188.56;5065898;28;20056;-67
2023/07/19 10:33:26;;;;;;;11.20;3.00;;;;;;;24.82;58.56;101197.47;5065247;28;20098;-63
2023/07/19 10:35:57;;;;;;;10.50;2.85;;;;;;;24.25;60.06;101190.28;5065604;28;20116;-67
2023/07/19 10:38:28;;;;;;;12.30;3.20;;;;;;;24.78;60.00;101187.78;5065054;28;20021;-67
2023/07/19 10:41:02;;;;;;;10.88;2.92;;;;;;;25.09;57.99;101180.81;5065661;28;20033;-71
2023/07/19 10:43:34;;;;;;;12.20;2.85;;;;;;;24.77;57.99;101188.72;5064166;28;20061;-70
2023/07/19 10:46:00;;;;;;;9.18;2.70;;;;;;;24.44;57.52;101186.72;5066502;28;20063;-71
2023/07/19 10:48:27;;;;;;;11.50;3.17;;;;;;;24.16;60.05;101185.34;5064585;28;20420;-71
2023/07/19 10:50:56;;;;;;;12.90;3.00;;;;;;;23.87;60.52;101179.47;5060888;28;20159;-70
2023/07/19 10:53:21;;;;;;;12.52;3.10;;;;;;;24.56;59.26;101177.13;5057722;28;20068;-70
2023/07/19 10:55:46;;;;;;;12.35;3.25;;;;;;;25.98;55.34;101170.69;5062920;28;20491;-70
2023/07/19 10:58:14;;;;;;;8.73;2.78;;;;;;;28.20;50.99;101170.22;5063149;28;20470;-70
2023/07/19 11:00:43;;;;;;;12.75;2.80;;;;;;;26.99;50.44;101190.28;5064094;28;20021;-71
2023/07/19 11:03:15;;;;;;;11.70;3.00;;;;;;;25.20;56.19;101184.69;5058825;28;20052;-71
2023/07/19 11:05:47;;;;;;;10.68;2.90;;;;;;;23.98;60.00;101174.44;5065596;28;20028;-70
2023/07/19 11:08:27;;;;;;;13.20;3.00;;;;;;;23.17;64.67;101192.41;5065897;28;20035;-70